Time;durP1;ratioP1;P1;durP2;ratioP2;P2;SDS_P1;SDS_P2;PMS_P1;PMS_P2;Temp;Humidity;BMP_temperature;BMP_pressure;BME280_temperature;BME280_humidity;BME280_pressure;Samples;Min_cycle;Max_cycle;Signal;HPM_P1;HPM_P2
2023/06/06 00:02:22;;;;;;;7.20;3.50;;;9.40;99.90;;;8.20;89.48;101673.56;4960801;28;20037;-76
2023/06/06 00:04:49;;;;;;;9.43;4.35;;;9.40;99.90;;;8.21;90.62;101665.66;4992298;28;20046;-76
2023/06/06 00:07:19;;;;;;;12.13;4.22;;;9.40;99.90;;;8.26;92.66;101668.19;4973285;28;20045;-76
2023/06/06 00:09:45;;;;;;;7.03;3.80;;;9.50;99.90;;;8.29;93.61;101681.22;4984477;28;20426;-77
2023/06/06 00:12:14;;;;;;;5.90;3.28;;;9.50;99.90;;;8.31;93.64;101675.94;4992461;28;20129;-76
2023/06/06 00:14:41;;;;;;;5.57;2.70;;;9.50;99.90;;;8.26;92.64;101676.03;4990931;28;20700;-77
2023/06/06 00:17:10;;;;;;;4.63;2.72;;;9.40;99.90;;;8.14;90.94;101681.53;4987773;28;20026;-76
2023/06/06 00:19:40;;;;;;;5.88;2.28;;;9.30;99.90;;;8.01;89.60;101673.06;4982617;28;20064;-76
2023/06/06 00:22:07;;;;;;;5.70;2.33;;;9.20;99.90;;;7.91;88.19;101671.56;4974924;28;20045;-76
2023/06/06 00:24:33;;;;;;;5.55;2.80;;;9.10;99.90;;;7.81;87.71;101673.47;4975969;28;20034;-76
2023/06/06 00:26:58;;;;;;;2.70;2.20;;;9.00;99.90;;;7.71;86.81;101669.31;4991102;28;20104;-77
2023/06/06 00:29:24;;;;;;;4.45;2.75;;;8.90;99.90;;;7.62;86.53;101669.50;4966701;28;20041;-76
2023/06/06 00:31:50;;;;;;;4.90;3.00;;;8.80;99.90;;;7.52;86.27;101663.59;4972003;28;20552;-76
2023/06/06 00:34:16;;;;;;;6.57;3.22;;;8.80;99.90;;;7.45;86.90;101659.31;4996314;28;20042;-77
2023/06/06 00:36:42;;;;;;;4.00;2.85;;;8.70;99.90;;;7.39;86.74;101671.66;4984774;28;20052;-76
2023/06/06 00:39:10;;;;;;;6.47;3.22;;;8.60;99.90;;;7.38;87.89;101666.44;4966294;28;20030;-76
2023/06/06 00:41:36;;;;;;;7.97;3.40;;;8.60;99.90;;;7.36;88.84;101668.22;4989489;28;20514;-76
2023/06/06 00:44:02;;;;;;;8.00;3.33;;;8.60;99.90;;;7.30;89.70;101663.97;4993022;28;20128;-76
2023/06/06 00:46:28;;;;;;;7.00;3.47;;;8.60;99.90;;;7.30;90.21;101665.72;4966783;28;20034;-77
2023/06/06 00:48:55;;;;;;;10.90;4.15;;;8.60;99.90;;;7.32;90.24;101670.06;4992031;28;20402;-76
2023/06/06 00:51:21;;;;;;;6.75;3.58;;;8.60;99.90;;;7.36;90.96;101669.09;4989935;28;20080;-76
2023/06/06 00:53:48;;;;;;;9.98;3.50;;;8.60;99.90;;;7.38;91.28;101661.19;4991211;28;20164;-76
2023/06/06 00:56:15;;;;;;;7.80;3.20;;;8.60;99.90;;;7.35;91.48;101666.50;5002088;28;20033;-77
2023/06/06 00:58:42;;;;;;;6.97;3.58;;;8.60;99.90;;;7.31;90.96;101667.44;4983460;28;20446;-77
2023/06/06 01:01:11;;;;;;;8.63;2.97;;;8.50;99.90;;;7.25;90.95;101671.03;4986753;28;20124;-76
2023/06/06 01:03:40;;;;;;;6.28;3.15;;;8.50;99.90;;;7.15;90.89;101670.34;4990870;28;20171;-76
2023/06/06 01:06:08;;;;;;;6.07;2.53;;;8.40;99.90;;;7.09;90.34;101669.59;4975519;28;20503;-75
2023/06/06 01:08:35;;;;;;;3.80;3.00;;;8.40;99.90;;;7.04;90.55;101666.16;5015096;28;20085;-77
2023/06/06 01:11:26;;;;;;;10.13;4.35;;;8.30;99.90;;;7.12;90.75;101670.38;4977971;28;20920;-76
2023/06/06 01:14:09;;;;;;;7.38;3.80;;;8.40;99.90;;;7.21;92.48;101669.34;4975579;28;20042;-76
2023/06/06 01:16:36;;;;;;;7.03;3.92;;;8.40;99.90;;;7.25;93.40;101662.31;4989105;28;20092;-77
2023/06/06 01:19:04;;;;;;;5.97;3.58;;;8.50;99.90;;;7.26;93.56;101658.81;4987078;28;20596;-77
2023/06/06 01:21:53;;;;;;;6.75;3.10;;;8.40;99.90;;;7.17;93.34;101665.94;4994923;28;20102;-77
2023/06/06 01:24:20;;;;;;;6.38;2.85;;;8.40;99.90;;;7.11;93.20;101658.19;4976922;28;20398;-76
2023/06/06 01:26:46;;;;;;;8.80;3.53;;;8.40;99.90;;;7.11;92.34;101662.56;4989322;28;20034;-77
2023/06/06 01:29:11;;;;;;;4.38;2.70;;;8.30;99.90;;;7.10;92.63;101659.06;4992737;28;20544;-77
2023/06/06 01:31:49;;;;;;;5.97;3.28;;;8.30;99.90;;;7.02;92.07;101658.34;4977014;28;20029;-77
2023/06/06 01:34:33;;;;;;;6.07;2.83;;;8.20;99.90;;;6.86;91.17;101655.09;4995614;28;20052;-77
2023/06/06 01:37:33;;;;;;;5.25;3.17;;;8.10;99.90;;;6.74;90.39;101658.81;4997544;28;20038;-76
2023/06/06 01:40:07;;;;;;;13.57;4.35;;;8.10;99.90;;;6.71;90.23;101656.22;4993805;28;20034;-76
2023/06/06 01:42:45;;;;;;;8.68;5.03;;;8.00;99.90;;;6.73;91.47;101646.59;4997904;28;20065;-76
2023/06/06 01:45:15;;;;;;;8.85;4.60;;;7.90;99.90;;;6.78;92.07;101660.47;4998230;28;20038;-76
2023/06/06 01:47:41;;;;;;;6.72;4.05;;;8.00;99.90;;;6.77;92.89;101658.75;5013292;28;20030;-77
2023/06/06 01:50:08;;;;;;;7.18;3.60;;;8.00;99.90;;;6.75;93.30;101663.13;4995094;28;20044;-76
2023/06/06 01:52:36;;;;;;;7.20;4.28;;;8.00;99.90;;;6.74;92.91;101653.56;4994595;28;21200;-76
2023/06/06 01:55:02;;;;;;;12.65;5.50;;;8.00;99.90;;;6.75;93.43;101660.50;4993500;28;20411;-76
2023/06/06 01:57:28;;;;;;;8.77;5.93;;;8.00;99.90;;;6.81;94.19;101663.94;4998112;28;20034;-77
2023/06/06 01:59:54;;;;;;;8.93;5.38;;;8.10;99.90;;;6.86;95.02;101662.09;5010663;28;20081;-76
2023/06/06 02:02:20;;;;;;;11.27;4.88;;;8.10;99.90;;;6.88;95.41;101661.19;4976029;28;20092;-76
2023/06/06 02:04:47;;;;;;;9.88;5.22;;;8.10;99.90;;;6.93;96.45;101661.09;4994688;28;20554;-77
2023/06/06 02:07:15;;;;;;;13.13;5.55;;;8.20;99.90;;;6.99;96.97;101658.38;4979156;28;20034;-77
2023/06/06 02:09:44;;;;;;;9.75;4.97;;;8.30;99.90;;;7.08;97.99;101666.09;4989783;28;20844;-76
2023/06/06 02:12:11;;;;;;;11.25;5.57;;;8.30;99.90;;;7.15;98.94;101672.09;4999333;28;20038;-76
2023/06/06 02:14:39;;;;;;;7.80;4.63;;;8.40;99.90;;;7.18;99.02;101670.28;4999391;28;20692;-76
2023/06/06 02:17:06;;;;;;;6.43;4.28;;;8.40;99.90;;;7.17;98.64;101670.28;4984350;28;20056;-75
2023/06/06 02:19:32;;;;;;;10.20;5.18;;;8.40;99.90;;;7.17;98.88;101667.69;4997186;28;20034;-76
2023/06/06 02:21:58;;;;;;;8.52;5.45;;;8.40;99.90;;;7.21;98.91;101668.50;4997599;28;20061;-75
2023/06/06 02:24:27;;;;;;;9.98;5.88;;;8.40;99.90;;;7.24;99.16;101653.59;5009902;28;20117;-76
2023/06/06 02:26:54;;;;;;;8.15;4.05;;;8.50;99.90;;;7.29;98.93;101653.50;4990753;28;20212;-76
2023/06/06 02:29:22;;;;;;;9.75;5.35;;;8.50;99.90;;;7.34;99.39;101660.41;4993038;28;20038;-76
2023/06/06 02:31:53;;;;;;;9.90;4.90;;;8.60;99.90;;;7.38;99.41;101648.09;4992344;28;20831;-75
2023/06/06 02:34:19;;;;;;;7.60;5.03;;;8.60;99.90;;;7.39;99.34;101657.69;4997865;28;20031;-76
2023/06/06 02:36:45;;;;;;;9.50;5.32;;;8.60;99.90;;;7.40;99.43;101647.16;4998890;28;20105;-76
2023/06/06 02:39:11;;;;;;;9.57;4.40;;;8.60;99.90;;;7.43;100.00;101651.50;4993597;28;20121;-76
2023/06/06 02:41:38;;;;;;;11.88;4.40;;;8.60;99.90;;;7.46;100.00;101655.81;4977998;28;20069;-75
2023/06/06 02:44:04;;;;;;;13.18;3.95;;;8.60;99.90;;;7.48;100.00;101652.28;4998627;28;20058;-75
2023/06/06 02:46:33;;;;;;;8.30;4.05;;;8.70;99.90;;;7.49;100.00;101667.09;4996858;22;20057;-75
2023/06/06 02:48:59;;;;;;;10.00;4.10;;;8.70;99.90;;;7.49;100.00;101669.72;4994229;28;20081;-76
2023/06/06 02:51:25;;;;;;;9.52;4.20;;;8.70;99.90;;;7.52;100.00;101667.06;4996930;28;20125;-77
2023/06/06 02:53:52;;;;;;;5.93;3.60;;;8.70;99.90;;;7.56;100.00;101671.34;4993626;28;20690;-76
2023/06/06 02:56:18;;;;;;;6.93;3.78;;;8.70;99.90;;;7.58;100.00;101658.19;4983380;28;20372;-76
2023/06/06 02:58:44;;;;;;;8.32;3.97;;;8.70;99.90;;;7.58;99.22;101664.31;4978590;28;20030;-76
2023/06/06 03:01:14;;;;;;;9.52;3.60;;;8.70;99.90;;;7.54;98.54;101665.28;4966714;28;20027;-76
2023/06/06 03:03:40;;;;;;;7.60;3.90;;;8.70;99.90;;;7.51;97.96;101653.97;4968560;28;20043;-75
2023/06/06 03:06:07;;;;;;;12.52;4.22;;;8.70;99.90;;;7.54;98.35;101662.66;4940673;28;20038;-75
2023/06/06 03:08:33;;;;;;;6.60;3.40;;;8.70;99.90;;;7.58;98.73;101664.31;4959675;28;20031;-75
2023/06/06 03:10:59;;;;;;;7.65;3.95;;;8.80;99.90;;;7.65;97.88;101656.34;5007698;28;20104;-76
2023/06/06 03:13:25;;;;;;;5.60;3.70;;;8.80;99.90;;;7.73;98.39;101664.91;4977146;28;20423;-76
2023/06/06 03:15:51;;;;;;;7.65;3.55;;;8.90;99.90;;;7.77;98.63;101664.81;4974423;28;20117;-76
2023/06/06 03:18:20;;;;;;;6.10;3.38;;;8.90;99.90;;;7.85;98.20;101667.28;4967727;28;20126;-76
2023/06/06 03:20:53;;;;;;;5.03;3.17;;;9.00;99.90;;;7.93;98.40;101665.38;4967249;28;20027;-76
2023/06/06 03:23:20;;;;;;;5.05;3.20;;;9.10;99.90;;;8.02;97.95;101659.94;4975093;28;20043;-76
2023/06/06 03:25:51;;;;;;;6.20;3.53;;;9.10;99.90;;;8.12;97.47;101663.25;4959627;28;20066;-75
2023/06/06 03:28:18;;;;;;;9.52;3.58;;;9.20;99.90;;;8.23;97.99;101663.00;4973629;28;20026;-75
2023/06/06 03:30:45;;;;;;;9.52;3.35;;;9.30;99.90;;;8.31;97.98;101670.69;4974661;28;20730;-76
2023/06/06 03:33:12;;;;;;;4.93;3.30;;;9.40;99.90;;;8.37;97.37;101660.06;4952464;28;20042;-76
2023/06/06 03:35:38;;;;;;;6.72;3.28;;;9.50;99.90;;;8.44;96.71;101672.16;4974272;28;20034;-76
2023/06/06 03:38:04;;;;;;;6.85;3.35;;;9.60;99.90;;;8.60;96.12;101676.19;4982764;28;20097;-76
2023/06/06 03:40:33;;;;;;;8.40;3.60;;;10.70;99.90;;;9.74;94.08;101672.41;4967320;28;20031;-76
2023/06/06 03:42:59;;;;;;;6.68;2.83;;;12.20;99.90;;;11.26;89.80;101686.19;4970567;28;20041;-76
2023/06/06 03:45:24;;;;;;;5.05;2.85;;;13.50;99.90;;;12.70;82.95;101698.50;4977351;28;20034;-77
2023/06/06 03:47:52;;;;;;;9.32;3.10;;;14.70;99.90;;;14.10;76.13;101696.03;4974086;28;20496;-76
2023/06/06 03:50:19;;;;;;;9.55;2.97;;;15.90;99.90;;;15.34;70.36;101702.44;4958090;28;20045;-76
2023/06/06 03:52:45;;;;;;;5.78;2.90;;;16.90;99.90;;;16.36;66.13;101697.91;4972572;28;20038;-76
2023/06/06 03:55:11;;;;;;;5.57;2.75;;;17.80;99.90;;;17.29;62.73;101698.00;4950771;28;20407;-76
2023/06/06 03:57:38;;;;;;;6.75;3.00;;;18.60;99.90;;;18.14;60.25;101699.91;4961270;28;20039;-76
2023/06/06 04:00:10;;;;;;;5.53;2.92;;;19.40;99.90;;;18.97;58.08;101701.72;4978360;28;20033;-76
2023/06/06 04:02:39;;;;;;;5.68;2.80;;;20.20;99.90;;;19.83;55.95;101709.25;4979691;28;20037;-77
2023/06/06 04:05:06;;;;;;;4.32;3.00;;;20.90;99.90;;;20.69;54.04;101708.41;4981603;28;20030;-76
2023/06/06 04:07:33;;;;;;;3.80;2.75;;;21.60;98.70;;;21.44;52.37;101720.69;5005805;28;20424;-77
2023/06/06 04:10:00;;;;;;;4.80;3.00;;;22.10;97.10;;;21.77;51.14;101717.22;4956524;28;20049;-76
2023/06/06 04:12:26;;;;;;;6.80;3.15;;;22.50;96.40;;;22.14;50.64;101722.34;4958968;28;20483;-77
2023/06/06 04:14:52;;;;;;;;;;;22.90;96.00;;;22.79;49.07;101725.19;4978953;28;20045;-76
2023/06/06 04:17:22;;;;;;;6.78;3.20;;;23.50;95.60;;;23.57;48.00;101741.97;4992187;28;19921;-76
2023/06/06 04:19:48;;;;;;;4.40;2.80;;;23.80;94.10;;;23.85;47.14;101745.84;4982247;28;20048;-76
2023/06/06 04:22:15;;;;;;;5.18;3.00;;;24.20;93.70;;;24.18;46.74;101752.78;4966571;28;20047;-76
2023/06/06 04:24:41;;;;;;;7.07;3.05;;;24.50;92.70;;;24.41;45.57;101760.66;4964636;28;20042;-76
2023/06/06 04:27:07;;;;;;;4.85;2.85;;;24.80;92.90;;;25.00;45.04;101754.41;4959705;28;20033;-76
2023/06/06 04:29:37;;;;;;;4.00;2.83;;;25.30;92.70;;;25.91;43.62;101779.19;4972730;28;20114;-76
2023/06/06 04:32:04;;;;;;;8.65;2.80;;;25.70;91.60;;;26.31;42.72;101780.78;4971489;28;20070;-76
2023/06/06 04:34:31;;;;;;;4.22;2.80;;;25.70;90.70;;;25.69;43.36;101774.97;4968915;28;20039;-76
2023/06/06 04:37:03;;;;;;;3.30;2.63;;;25.90;91.40;;;26.24;42.99;101779.69;4972137;28;20034;-76
2023/06/06 04:39:33;;;;;;;3.70;2.75;;;26.40;91.40;;;27.34;41.66;101784.13;4975902;28;20149;-77
2023/06/06 04:42:06;;;;;;;6.15;2.55;;;27.00;90.60;;;28.30;40.35;101798.66;4969869;28;20041;-77
2023/06/06 04:44:34;;;;;;;7.25;2.80;;;27.50;90.00;;;28.94;39.05;101799.06;4968104;28;20502;-76
2023/06/06 04:47:01;;;;;;;9.90;2.75;;;28.10;89.60;;;29.74;38.24;101806.59;4973260;28;20096;-77
2023/06/06 04:49:35;;;;;;;9.70;2.70;;;28.70;89.00;;;30.56;37.23;101811.81;4974917;28;20495;-77
2023/06/06 04:52:10;;;;;;;5.00;2.92;;;28.90;85.50;;;30.24;37.02;101806.31;4975821;28;20100;-76
2023/06/06 04:54:38;;;;;;;3.55;2.80;;;28.70;83.80;;;29.42;37.39;101798.31;4982442;28;20081;-75
2023/06/06 04:57:08;;;;;;;6.53;2.88;;;28.50;85.00;;;29.20;38.09;101794.41;4965407;28;20046;-75
2023/06/06 04:59:37;;;;;;;4.88;2.90;;;28.70;86.90;;;30.32;37.42;101810.06;4976592;28;20035;-75
2023/06/06 05:02:03;;;;;;;8.68;2.85;;;29.30;86.10;;;31.33;36.07;101822.75;4973485;28;20068;-74
2023/06/06 05:04:31;;;;;;;3.90;2.70;;;;;;;32.22;34.71;101833.03;4967067;28;20037;-74
2023/06/06 05:06:58;;;;;;;6.47;3.25;;;30.40;83.30;;;32.77;34.14;101834.41;4982924;28;20053;-75
2023/06/06 05:09:24;;;;;;;4.43;3.00;;;31.00;81.60;;;33.55;32.87;101831.88;4974377;28;20092;-76
2023/06/06 05:11:52;;;;;;;6.55;2.40;;;31.50;80.00;;;34.13;31.97;101837.19;4948453;28;20046;-76
2023/06/06 05:14:23;;;;;;;4.45;2.90;;;31.50;82.00;;;34.81;30.71;101839.19;4971037;28;20465;-75
2023/06/06 05:16:53;;;;;;;5.63;2.67;;;32.30;76.60;;;34.90;30.46;101843.44;4950764;28;20139;-75
2023/06/06 05:19:20;;;;;;;6.65;2.50;;;32.60;77.10;;;35.35;30.20;101848.41;4966630;28;20113;-75
2023/06/06 05:21:47;;;;;;;5.07;2.50;;;32.90;76.10;;;35.73;29.88;101845.91;4969730;28;20402;-75
2023/06/06 05:24:14;;;;;;;6.93;2.60;;;33.00;73.20;;;35.35;29.75;101851.13;4966495;28;20031;-75
2023/06/06 05:26:41;;;;;;;4.93;2.58;;;33.00;73.60;;;35.15;29.67;101851.13;4974618;28;20035;-75
2023/06/06 05:29:08;;;;;;;5.00;2.40;;;33.10;72.30;;;34.97;30.25;101851.66;4966018;28;20153;-77
2023/06/06 05:31:34;;;;;;;5.80;2.30;;;33.10;73.40;;;35.53;29.32;101859.56;4959145;28;20042;-75
2023/06/06 05:34:01;;;;;;;2.80;2.25;;;33.00;73.10;;;34.71;30.62;101854.13;4944097;28;20022;-75
2023/06/06 05:36:27;;;;;;;6.50;2.70;;;32.80;72.70;;;34.20;30.57;101850.88;4957193;28;20042;-76
2023/06/06 05:38:53;;;;;;;4.30;2.28;;;32.80;74.20;;;34.74;30.59;101860.22;4969266;28;20034;-76
2023/06/06 05:41:20;;;;;;;4.68;2.47;;;33.20;74.00;;;35.81;29.56;101872.22;4966938;28;20066;-76
2023/06/06 05:43:47;;;;;;;4.55;2.50;;;33.50;71.40;;;36.16;28.49;101878.34;4958628;28;20046;-77
2023/06/06 05:46:13;;;;;;;7.10;2.65;;;33.40;71.20;;;35.15;29.96;101873.84;4964818;28;20089;-76
2023/06/06 05:48:40;;;;;;;4.50;2.60;;;33.00;72.60;;;34.46;30.70;101841.97;4963721;28;20058;-75
2023/06/06 05:51:07;;;;;;;4.20;2.70;;;32.90;72.90;;;34.44;30.54;101841.34;4972035;28;20049;-76
2023/06/06 05:53:33;;;;;;;2.90;2.38;;;33.20;72.40;;;35.11;29.54;101859.69;4935969;28;25048;-77
2023/06/06 05:55:59;;;;;;;3.83;2.30;;;33.00;70.70;;;34.22;30.04;101855.09;4987157;28;20053;-75
2023/06/06 05:58:25;;;;;;;4.85;2.70;;;32.70;70.80;;;33.75;30.82;101839.41;4957363;28;20648;-75
2023/06/06 06:00:51;;;;;;;4.25;2.30;;;32.70;70.80;;;33.77;30.43;101840.88;4964326;28;20046;-75
2023/06/06 06:03:17;;;;;;;7.68;2.67;;;32.80;71.30;;;34.08;30.28;101848.69;4995543;28;20042;-76
2023/06/06 06:05:44;;;;;;;4.63;2.70;;;32.80;71.80;;;33.69;31.18;101839.16;4967058;28;20116;-77
2023/06/06 06:08:11;;;;;;;5.82;2.25;;;33.00;70.30;;;33.86;31.10;101841.59;4973787;28;20432;-76
2023/06/06 06:10:38;;;;;;;3.63;2.65;;;32.90;72.10;;;33.51;31.74;101836.03;4971520;28;20034;-75
2023/06/06 06:13:05;;;;;;;4.25;2.40;;;33.30;70.00;;;34.24;30.23;101843.97;4970410;28;20054;-75
2023/06/06 06:15:33;;;;;;;6.13;2.42;;;33.30;69.50;;;33.90;30.58;101845.59;4966598;28;20089;-76
2023/06/06 06:18:00;;;;;;;6.50;2.47;;;33.20;68.30;;;33.69;30.71;101858.28;4967709;28;20043;-76
2023/06/06 06:20:26;;;;;;;3.65;2.63;;;33.70;69.60;;;34.69;29.42;101858.94;4974891;28;20039;-76
2023/06/06 06:22:52;;;;;;;3.78;2.70;;;33.90;66.90;;;34.60;29.00;101862.88;4947021;28;20049;-76
2023/06/06 06:25:19;;;;;;;5.13;2.50;;;34.30;68.20;;;35.44;28.55;101878.09;4969007;28;20506;-77
2023/06/06 06:27:46;;;;;;;3.25;2.35;;;34.30;67.70;;;34.82;29.21;101869.09;4960428;28;20038;-76
2023/06/06 06:30:13;;;;;;;11.60;2.90;;;34.50;66.70;;;35.28;28.59;101881.25;4966013;28;20124;-76
2023/06/06 06:32:41;;;;;;;3.80;2.30;;;34.80;67.20;;;35.63;28.67;101873.72;4974915;28;20027;-76
2023/06/06 06:35:13;;;;;;;3.78;2.63;;;34.90;66.40;;;35.02;29.00;101871.88;4972673;28;20067;-75
2023/06/06 06:37:40;;;;;;;6.38;2.50;;;34.40;63.60;;;33.85;29.33;101859.03;4949281;28;20426;-75
2023/06/06 06:40:10;;;;;;;4.80;2.60;;;34.60;65.10;;;34.79;28.87;101871.38;4960689;28;20031;-75
2023/06/06 06:42:43;;;;;;;3.65;2.08;;;34.40;65.40;;;34.16;29.51;101860.53;4962666;28;20038;-76
2023/06/06 06:45:16;;;;;;;3.90;2.60;;;34.20;66.20;;;33.79;30.32;101848.91;4984192;28;20046;-76
2023/06/06 06:47:43;;;;;;;5.95;2.78;;;34.50;66.80;;;34.84;29.65;101871.59;4964745;28;20113;-76
2023/06/06 06:50:10;;;;;;;4.55;2.53;;;34.40;66.50;;;34.20;29.53;101848.16;4970141;28;20047;-76
2023/06/06 06:52:37;;;;;;;7.13;2.58;;;35.00;68.00;;;35.56;29.09;101863.78;4954166;28;20037;-76
2023/06/06 06:55:10;;;;;;;6.95;3.00;;;35.60;67.20;;;36.44;28.17;101882.69;4972973;28;20049;-77
2023/06/06 06:57:38;;;;;;;6.57;2.58;;;36.10;64.70;;;36.54;27.70;101891.31;4966498;28;20109;-75
2023/06/06 07:00:15;;;;;;;5.47;2.60;;;36.20;63.80;;;36.01;27.91;101878.53;4964960;28;25350;-76
2023/06/06 07:02:44;;;;;;;4.40;2.60;;;36.20;65.80;;;37.40;27.04;101894.72;4968404;28;20521;-75
2023/06/06 07:05:11;;;;;;;6.35;2.70;;;37.20;64.30;;;37.81;27.07;101896.94;4969844;28;20038;-75
2023/06/06 07:07:50;;;;;;;3.90;2.65;;;37.70;63.10;;;38.25;25.77;101891.47;4966750;28;20033;-76
2023/06/06 07:10:17;;;;;;;4.10;2.28;;;37.70;61.90;;;37.90;26.07;101894.75;4972812;28;20049;-76
2023/06/06 07:12:52;;;;;;;3.58;2.45;;;37.90;60.80;;;38.20;25.08;101900.41;4977867;23;1110177;-78
2023/06/06 07:15:19;;;;;;;6.50;2.90;;;38.20;59.40;;;38.52;24.46;101905.81;5009488;28;20026;-79
2023/06/06 07:17:48;;;;;;;7.70;2.80;;;37.60;59.00;;;37.29;26.27;101904.50;5011596;28;20041;-78
2023/06/06 07:20:14;;;;;;;5.40;2.72;;;37.40;61.20;;;37.34;25.90;101897.31;5011739;28;20025;-78
2023/06/06 07:22:40;;;;;;;3.38;2.65;;;37.20;59.60;;;37.21;26.11;101891.88;4994465;28;20137;-78
2023/06/06 07:25:09;;;;;;;4.80;2.80;;;36.90;60.80;;;36.47;26.66;101876.78;5009781;28;20034;-77
2023/06/06 07:27:37;;;;;;;5.68;2.67;;;37.00;59.40;;;36.50;26.12;101871.72;4993729;28;20038;-78
2023/06/06 07:30:14;;;;;;;6.63;2.85;;;36.80;60.20;;;36.27;27.04;101871.34;4984192;28;20573;-79
2023/06/06 07:32:47;;;;;;;12.65;2.72;;;36.10;61.60;;;35.41;27.82;101856.63;4993375;28;20043;-78
2023/06/06 07:35:15;;;;;;;5.07;2.22;;;36.10;62.30;;;35.85;27.91;101854.31;5010901;28;20095;-78
2023/06/06 07:37:41;;;;;;;5.93;2.70;;;36.20;62.50;;;36.35;27.43;101865.63;4990768;28;20037;-77
2023/06/06 07:40:11;;;;;;;3.65;2.72;;;35.90;61.60;;;35.53;28.41;101849.47;5008491;28;20034;-77
2023/06/06 07:42:39;;;;;;;4.60;2.88;;;35.70;62.40;;;35.29;28.59;101836.38;5006643;28;20037;-77
2023/06/06 07:45:06;;;;;;;3.67;2.67;;;35.50;62.40;;;34.90;28.95;101840.69;5008810;28;21912;-77
2023/06/06 07:47:31;;;;;;;7.53;2.70;;;35.30;62.00;;;34.91;28.67;101831.44;4982397;28;20061;-77
2023/06/06 07:49:58;;;;;;;5.25;2.50;;;35.20;63.40;;;35.15;28.39;101827.31;4993283;28;20037;-77
2023/06/06 07:52:25;;;;;;;11.48;2.60;;;35.10;64.00;;;35.03;29.38;101823.47;5007854;28;20108;-78
2023/06/06 07:54:51;;;;;;;5.40;2.25;;;35.00;64.70;;;34.71;29.81;101814.97;5006969;28;20054;-78
2023/06/06 07:57:17;;;;;;;6.50;2.63;;;35.00;64.30;;;34.91;29.22;101823.25;5009995;28;20124;-77
2023/06/06 07:59:43;;;;;;;4.40;2.63;;;35.10;64.30;;;35.09;29.14;101823.47;4993196;28;20046;-78
2023/06/06 08:02:15;;;;;;;3.55;2.50;;;35.10;63.90;;;35.07;28.91;101817.34;4983506;28;20068;-78
2023/06/06 08:04:45;;;;;;;3.30;2.50;;;34.50;63.30;;;33.67;29.92;101803.03;5013493;28;20083;-77
2023/06/06 08:07:13;;;;;;;6.10;2.78;;;33.70;63.50;;;32.51;31.03;101785.84;4996184;28;20033;-78
2023/06/06 08:09:40;;;;;;;6.05;2.47;;;33.40;63.80;;;32.69;30.41;101774.53;5010099;28;20061;-77
2023/06/06 08:12:06;;;;;;;6.07;2.28;;;33.40;64.00;;;33.24;29.83;101775.75;4995664;28;20053;-76
2023/06/06 08:14:36;;;;;;;5.78;2.80;;;33.40;68.80;;;33.50;31.56;101787.94;5012820;28;20677;-79
2023/06/06 08:17:06;;;;;;;5.18;2.65;;;33.00;68.10;;;32.37;32.50;101773.91;5003153;28;20033;-77
2023/06/06 08:19:32;;;;;;;6.57;2.60;;;32.10;70.60;;;31.00;34.69;101748.72;4993684;28;20030;-78
2023/06/06 08:21:58;;;;;;;3.38;2.55;;;31.80;71.20;;;31.51;34.53;101759.03;5010263;28;20030;-77
2023/06/06 08:24:24;;;;;;;5.30;2.75;;;31.70;71.40;;;31.50;34.44;101760.91;5011984;28;20036;-78
2023/06/06 08:26:50;;;;;;;6.80;2.50;;;30.50;71.20;;;29.17;37.06;101724.22;4994554;28;20034;-78
2023/06/06 08:29:16;;;;;;;4.82;2.72;;;30.00;72.10;;;28.90;37.09;101717.25;4994301;28;20109;-77
2023/06/06 08:31:43;;;;;;;7.50;2.30;;;29.60;72.40;;;28.77;37.52;101720.44;5013717;28;20440;-78
2023/06/06 08:34:09;;;;;;;4.70;2.55;;;29.50;73.90;;;29.10;37.06;101722.38;4994980;28;20075;-78
2023/06/06 08:36:37;;;;;;;4.80;2.17;;;29.30;72.80;;;28.64;37.32;101720.09;5003426;28;20033;-76
2023/06/06 08:39:06;;;;;;;8.15;2.45;;;28.70;75.90;;;27.56;39.95;101711.59;4995063;28;20033;-78
2023/06/06 08:41:33;;;;;;;3.38;2.40;;;28.60;77.10;;;27.63;40.17;101706.41;4993393;28;20026;-78
2023/06/06 08:44:03;;;;;;;8.32;2.70;;;28.40;76.40;;;27.64;39.71;101713.50;5015775;28;20106;-77
2023/06/06 08:46:35;;;;;;;8.10;2.40;;;28.50;76.60;;;28.12;39.41;101706.66;4996553;28;20022;-78
2023/06/06 08:49:04;;;;;;;5.82;2.65;;;28.60;76.80;;;28.19;38.66;101705.03;5014760;28;20107;-79
2023/06/06 08:51:30;;;;;;;5.65;2.30;;;28.50;76.00;;;27.81;39.38;101704.47;5008660;28;20030;-78
2023/06/06 08:54:00;;;;;;;7.22;2.45;;;28.50;76.60;;;27.66;39.62;101703.38;5011638;28;20033;-77
2023/06/06 08:56:26;;;;;;;3.25;2.30;;;28.10;76.90;;;27.08;40.52;101694.81;5013706;28;20030;-77
2023/06/06 08:58:53;;;;;;;4.03;2.33;;;28.10;77.60;;;26.24;40.56;101687.91;4996152;28;20135;-78
2023/06/06 09:01:23;;;;;;;4.30;2.40;;;27.40;77.40;;;26.30;41.40;101681.88;4996841;28;20038;-76
2023/06/06 09:03:53;;;;;;;5.88;2.67;;;27.40;78.50;;;26.70;41.01;101690.59;5007918;28;20046;-77
2023/06/06 09:06:21;;;;;;;4.22;2.60;;;27.50;78.90;;;26.88;40.54;101696.84;4996889;28;20041;-77
2023/06/06 09:08:52;;;;;;;5.70;2.40;;;27.60;77.80;;;27.19;39.60;101701.81;4989050;28;20037;-77
2023/06/06 09:11:18;;;;;;;6.13;2.45;;;27.70;78.40;;;27.16;40.28;101700.28;4998737;28;20103;-76
2023/06/06 09:13:45;;;;;;;3.85;2.45;;;27.70;78.90;;;27.34;39.71;101702.13;5005974;28;20489;-77
2023/06/06 09:16:15;;;;;;;4.47;2.40;;;27.90;77.10;;;27.43;39.41;101695.81;5010304;28;20038;-78
2023/06/06 09:18:44;;;;;;;5.45;2.22;;;27.90;76.10;;;27.50;39.00;101702.25;4994858;28;20042;-77
2023/06/06 09:21:13;;;;;;;4.82;2.47;;;28.00;77.70;;;26.90;41.07;101691.28;5013494;28;20065;-78
2023/06/06 09:23:40;;;;;;;4.90;2.55;;;27.80;76.20;;;27.20;39.36;101698.13;5011889;28;20045;-78
2023/06/06 09:26:19;;;;;;;3.88;2.30;;;27.40;75.90;;;26.48;40.38;101686.44;4996678;28;20071;-76
2023/06/06 09:28:45;;;;;;;3.50;2.38;;;27.30;78.00;;;26.47;40.57;101682.91;5012789;28;20022;-78
2023/06/06 09:31:34;;;;;;;3.75;2.53;;;27.40;77.80;;;26.97;40.02;101687.78;5015340;28;20037;-78
2023/06/06 09:34:03;;;;;;;7.28;2.63;;;27.40;79.30;;;26.72;41.17;101683.19;4996947;28;20048;-77
2023/06/06 09:36:31;;;;;;;4.50;2.38;;;27.50;76.40;;;26.90;39.60;101696.69;5014492;28;20033;-76
2023/06/06 09:39:14;;;;;;;2.83;2.38;;;27.40;76.20;;;26.66;39.75;101686.50;5014079;28;20100;-76
2023/06/06 09:41:48;;;;;;;8.45;3.00;;;27.60;77.50;;;27.14;39.33;101693.34;5002515;28;20383;-77
2023/06/06 09:44:24;;;;;;;3.55;2.45;;;27.70;77.50;;;27.15;39.46;101698.59;5013761;28;20572;-76
2023/06/06 09:47:03;;;;;;;;;;;27.70;77.40;;;26.95;39.48;101699.78;5012916;28;20038;-77
2023/06/06 09:49:41;;;;;;;3.97;2.30;;;27.50;74.60;;;26.67;39.50;101686.34;4987724;28;19914;-77
2023/06/06 09:52:13;;;;;;;4.10;2.63;;;27.20;74.80;;;26.16;39.69;101680.53;4998123;28;20124;-76
2023/06/06 09:54:44;;;;;;;5.80;2.40;;;26.80;76.20;;;25.55;41.44;101668.41;4999455;28;20064;-77
2023/06/06 09:57:16;;;;;;;5.63;2.33;;;26.90;77.70;;;26.05;40.89;101678.03;4996841;28;20048;-79
2023/06/06 09:59:48;;;;;;;4.10;2.45;;;26.70;76.40;;;25.86;40.71;101670.84;4997033;28;20040;-77
2023/06/06 10:02:22;;;;;;;3.65;2.50;;;26.90;75.90;;;26.15;40.70;101672.59;4996902;28;20045;-78
2023/06/06 10:04:54;;;;;;;3.05;2.20;;;26.80;76.60;;;26.17;40.05;101681.38;5013823;28;20120;-77
2023/06/06 10:07:24;;;;;;;4.35;2.70;;;26.90;75.60;;;26.25;39.52;101677.94;5009751;28;20030;-77
2023/06/06 10:09:51;;;;;;;5.43;2.58;;;27.00;76.30;;;26.49;39.52;101674.66;4996323;28;20091;-80
2023/06/06 10:12:17;;;;;;;5.57;2.47;;;27.20;74.90;;;26.64;39.33;101683.97;5012875;28;20099;-77
2023/06/06 10:14:48;;;;;;;5.60;2.40;;;27.40;75.90;;;26.96;38.96;101688.81;5012860;28;20117;-79
2023/06/06 10:17:15;;;;;;;6.72;2.78;;;27.40;73.60;;;26.74;38.18;101683.91;4999838;28;20422;-77
2023/06/06 10:19:46;;;;;;;4.43;2.58;;;27.20;74.20;;;26.45;38.38;101681.34;5003884;28;20490;-78
2023/06/06 10:22:12;;;;;;;4.50;3.10;;;;;;;26.50;38.87;101681.75;5013952;28;20041;-77
2023/06/06 10:24:39;;;;;;;7.43;2.40;;;27.20;76.10;;;26.63;39.03;101684.97;5011610;28;20043;-77